sensor_id;sensor_type;location;lat;lon;timestamp;pressure;altitude;pressure_sealevel;temperature;humidity
36138;BME280;67787;50.074;21.904;2024-01-30T00:02:19;101056.77;;;0.12;72.89
36138;BME280;67787;50.074;21.904;2024-01-30T00:04:47;101056.77;;;0.13;72.63
36138;BME280;67787;50.074;21.904;2024-01-30T00:07:15;101053.28;;;0.14;72.54
36138;BME280;67787;50.074;21.904;2024-01-30T00:09:46;101051.71;;;0.15;72.60
36138;BME280;67787;50.074;21.904;2024-01-30T00:12:14;101042.48;;;0.18;72.87
36138;BME280;67787;50.074;21.904;2024-01-30T00:14:42;101045.79;;;0.19;72.67
36138;BME280;67787;50.074;21.904;2024-01-30T00:17:13;101046.31;;;0.20;72.62
36138;BME280;67787;50.074;21.904;2024-01-30T00:19:41;101048.41;;;0.22;72.69
36138;BME280;67787;50.074;21.904;2024-01-30T00:22:09;101043.86;;;0.24;72.71
36138;BME280;67787;50.074;21.904;2024-01-30T00:24:37;101043.52;;;0.25;72.64
36138;BME280;67787;50.074;21.904;2024-01-30T00:27:05;101041.77;;;0.26;72.65
36138;BME280;67787;50.074;21.904;2024-01-30T00:29:33;101044.05;;;0.25;72.68
36138;BME280;67787;50.074;21.904;2024-01-30T00:32:01;101038.80;;;0.24;72.52
36138;BME280;67787;50.074;21.904;2024-01-30T00:34:29;101040.20;;;0.25;72.62
36138;BME280;67787;50.074;21.904;2024-01-30T00:36:57;101038.99;;;0.26;72.37
36138;BME280;67787;50.074;21.904;2024-01-30T00:39:25;101035.67;;;0.27;72.59
36138;BME280;67787;50.074;21.904;2024-01-30T00:41:53;101029.21;;;0.27;72.78
36138;BME280;67787;50.074;21.904;2024-01-30T00:44:21;101030.96;;;0.28;72.58
36138;BME280;67787;50.074;21.904;2024-01-30T00:46:49;101029.23;;;0.29;72.63
36138;BME280;67787;50.074;21.904;2024-01-30T00:49:17;101026.60;;;0.30;72.40
36138;BME280;67787;50.074;21.904;2024-01-30T00:51:46;101029.05;;;0.32;72.47
36138;BME280;67787;50.074;21.904;2024-01-30T00:54:14;101023.11;;;0.31;72.48
36138;BME280;67787;50.074;21.904;2024-01-30T00:56:41;101023.45;;;0.31;72.32
36138;BME280;67787;50.074;21.904;2024-01-30T00:59:11;101018.41;;;0.33;72.66
36138;BME280;67787;50.074;21.904;2024-01-30T01:01:39;101021.89;;;0.34;72.42
36138;BME280;67787;50.074;21.904;2024-01-30T01:04:07;101019.46;;;0.34;72.27
36138;BME280;67787;50.074;21.904;2024-01-30T01:06:35;101017.88;;;0.33;72.56
36138;BME280;67787;50.074;21.904;2024-01-30T01:09:03;101015.09;;;0.33;72.30
36138;BME280;67787;50.074;21.904;2024-01-30T01:11:32;101019.29;;;0.31;72.18
36138;BME280;67787;50.074;21.904;2024-01-30T01:14:00;101015.61;;;0.29;72.44
36138;BME280;67787;50.074;21.904;2024-01-30T01:16:27;101012.30;;;0.31;72.45
36138;BME280;67787;50.074;21.904;2024-01-30T01:18:56;101011.08;;;0.32;72.32
36138;BME280;67787;50.074;21.904;2024-01-30T01:21:24;101006.54;;;0.32;72.31
36138;BME280;67787;50.074;21.904;2024-01-30T01:23:52;101006.19;;;0.33;72.26
36138;BME280;67787;50.074;21.904;2024-01-30T01:26:19;101006.72;;;0.33;72.31
36138;BME280;67787;50.074;21.904;2024-01-30T01:28:47;101007.41;;;0.34;72.24
36138;BME280;67787;50.074;21.904;2024-01-30T01:31:16;101005.14;;;0.36;72.24
36138;BME280;67787;50.074;21.904;2024-01-30T01:33:46;101000.96;;;0.38;72.38
36138;BME280;67787;50.074;21.904;2024-01-30T01:36:14;101001.48;;;0.38;72.28
36138;BME280;67787;50.074;21.904;2024-01-30T01:38:42;101007.42;;;0.39;72.30
36138;BME280;67787;50.074;21.904;2024-01-30T01:41:10;101001.14;;;0.38;72.20
36138;BME280;67787;50.074;21.904;2024-01-30T01:43:38;101001.83;;;0.36;72.21
36138;BME280;67787;50.074;21.904;2024-01-30T01:46:08;101003.57;;;0.34;72.28
36138;BME280;67787;50.074;21.904;2024-01-30T01:48:37;101003.40;;;0.33;72.20
36138;BME280;67787;50.074;21.904;2024-01-30T01:51:07;101003.05;;;0.34;72.12
36138;BME280;67787;50.074;21.904;2024-01-30T01:53:36;100998.69;;;0.34;72.25
36138;BME280;67787;50.074;21.904;2024-01-30T01:56:05;100993.80;;;0.35;72.47
36138;BME280;67787;50.074;21.904;2024-01-30T01:58:33;100992.41;;;0.34;72.36
36138;BME280;67787;50.074;21.904;2024-01-30T02:01:01;100999.73;;;0.37;72.33
36138;BME280;67787;50.074;21.904;2024-01-30T02:03:30;100996.60;;;0.39;72.30
36138;BME280;67787;50.074;21.904;2024-01-30T02:05:58;100997.81;;;0.41;72.35
36138;BME280;67787;50.074;21.904;2024-01-30T02:08:26;100996.05;;;0.42;72.33
36138;BME280;67787;50.074;21.904;2024-01-30T02:10:54;100996.42;;;0.41;72.38
36138;BME280;67787;50.074;21.904;2024-01-30T02:13:23;100992.04;;;0.41;72.22
36138;BME280;67787;50.074;21.904;2024-01-30T02:15:51;100992.05;;;0.43;72.22
36138;BME280;67787;50.074;21.904;2024-01-30T02:18:20;100988.90;;;0.43;72.09
36138;BME280;67787;50.074;21.904;2024-01-30T02:20:54;100990.83;;;0.41;72.16
36138;BME280;67787;50.074;21.904;2024-01-30T02:23:24;100988.91;;;0.43;72.16
36138;BME280;67787;50.074;21.904;2024-01-30T02:25:53;100991.17;;;0.45;72.16
36138;BME280;67787;50.074;21.904;2024-01-30T02:28:21;100993.63;;;0.46;72.21
36138;BME280;67787;50.074;21.904;2024-01-30T02:30:48;100990.14;;;0.46;72.26
36138;BME280;67787;50.074;21.904;2024-01-30T02:33:16;100991.52;;;0.47;72.23
36138;BME280;67787;50.074;21.904;2024-01-30T02:35:44;100992.06;;;0.47;72.18
36138;BME280;67787;50.074;21.904;2024-01-30T02:38:12;100990.65;;;0.46;72.04
36138;BME280;67787;50.074;21.904;2024-01-30T02:40:40;100987.69;;;0.47;72.27
36138;BME280;67787;50.074;21.904;2024-01-30T02:43:08;100986.98;;;0.48;72.22
36138;BME280;67787;50.074;21.904;2024-01-30T02:45:36;100987.52;;;0.50;72.08
36138;BME280;67787;50.074;21.904;2024-01-30T02:48:04;100991.19;;;0.51;72.18
36138;BME280;67787;50.074;21.904;2024-01-30T02:50:32;100994.49;;;0.52;72.23
36138;BME280;67787;50.074;21.904;2024-01-30T02:53:00;101004.98;;;0.51;72.06
36138;BME280;67787;50.074;21.904;2024-01-30T02:55:28;101007.59;;;0.51;71.97
36138;BME280;67787;50.074;21.904;2024-01-30T02:57:56;101007.24;;;0.51;72.01
36138;BME280;67787;50.074;21.904;2024-01-30T03:00:24;101006.02;;;0.50;72.04
36138;BME280;67787;50.074;21.904;2024-01-30T03:02:52;101007.42;;;0.46;71.95
36138;BME280;67787;50.074;21.904;2024-01-30T03:05:20;101005.66;;;0.43;71.82
36138;BME280;67787;50.074;21.904;2024-01-30T03:07:48;101002.70;;;0.42;71.87
36138;BME280;67787;50.074;21.904;2024-01-30T03:10:16;100999.39;;;0.41;71.76
36138;BME280;67787;50.074;21.904;2024-01-30T03:12:44;101005.67;;;0.39;71.88
36138;BME280;67787;50.074;21.904;2024-01-30T03:15:12;101007.59;;;0.36;71.93
36138;BME280;67787;50.074;21.904;2024-01-30T03:17:40;101005.67;;;0.34;71.75
36138;BME280;67787;50.074;21.904;2024-01-30T03:20:08;101002.52;;;0.32;71.89
36138;BME280;67787;50.074;21.904;2024-01-30T03:22:37;101006.88;;;0.28;71.80
36138;BME280;67787;50.074;21.904;2024-01-30T03:25:05;101006.17;;;0.22;71.85
36138;BME280;67787;50.074;21.904;2024-01-30T03:27:34;101009.49;;;0.17;71.82
36138;BME280;67787;50.074;21.904;2024-01-30T03:30:02;101006.86;;;0.10;71.86
36138;BME280;67787;50.074;21.904;2024-01-30T03:32:30;101001.27;;;0.06;71.69
36138;BME280;67787;50.074;21.904;2024-01-30T03:34:57;100996.73;;;0.05;71.82
36138;BME280;67787;50.074;21.904;2024-01-30T03:37:26;100993.06;;;0.05;71.86
36138;BME280;67787;50.074;21.904;2024-01-30T03:39:54;100993.77;;;0.10;72.04
36138;BME280;67787;50.074;21.904;2024-01-30T03:42:22;100991.17;;;0.13;71.92
36138;BME280;67787;50.074;21.904;2024-01-30T03:44:50;100990.48;;;0.16;71.94
36138;BME280;67787;50.074;21.904;2024-01-30T03:47:21;100991.17;;;0.20;71.95
36138;BME280;67787;50.074;21.904;2024-01-30T03:49:49;100988.03;;;0.23;72.13
36138;BME280;67787;50.074;21.904;2024-01-30T03:52:17;100988.55;;;0.28;72.17
36138;BME280;67787;50.074;21.904;2024-01-30T03:54:45;100992.40;;;0.30;72.02
36138;BME280;67787;50.074;21.904;2024-01-30T03:57:13;100991.18;;;0.33;72.14
36138;BME280;67787;50.074;21.904;2024-01-30T03:59:43;100992.77;;;0.36;72.13
36138;BME280;67787;50.074;21.904;2024-01-30T04:02:11;100987.86;;;0.40;72.00
36138;BME280;67787;50.074;21.904;2024-01-30T04:04:40;100978.42;;;0.42;72.03
36138;BME280;67787;50.074;21.904;2024-01-30T04:07:08;100970.92;;;0.43;71.71
36138;BME280;67787;50.074;21.904;2024-01-30T04:09:36;100964.99;;;0.42;71.87
36138;BME280;67787;50.074;21.904;2024-01-30T04:12:06;100965.34;;;0.43;71.83
36138;BME280;67787;50.074;21.904;2024-01-30T04:14:34;100962.89;;;0.46;71.92
36138;BME280;67787;50.074;21.904;2024-01-30T04:17:03;100966.73;;;0.48;71.78
36138;BME280;67787;50.074;21.904;2024-01-30T04:19:31;100967.95;;;0.48;71.98
36138;BME280;67787;50.074;21.904;2024-01-30T04:21:58;100972.51;;;0.48;71.90
36138;BME280;67787;50.074;21.904;2024-01-30T04:24:26;100980.70;;;0.49;71.89
36138;BME280;67787;50.074;21.904;2024-01-30T04:26:57;100982.27;;;0.52;72.03
36138;BME280;67787;50.074;21.904;2024-01-30T04:29:25;100988.73;;;0.52;71.66
36138;BME280;67787;50.074;21.904;2024-01-30T04:31:53;100985.95;;;0.51;71.83
36138;BME280;67787;50.074;21.904;2024-01-30T04:34:21;100983.85;;;0.52;71.98
36138;BME280;67787;50.074;21.904;2024-01-30T04:36:49;100981.58;;;0.53;71.71
36138;BME280;67787;50.074;21.904;2024-01-30T04:39:17;100977.39;;;0.55;72.04
36138;BME280;67787;50.074;21.904;2024-01-30T04:41:45;100973.56;;;0.60;72.12
36138;BME280;67787;50.074;21.904;2024-01-30T04:44:13;100971.61;;;0.62;71.72
36138;BME280;67787;50.074;21.904;2024-01-30T04:46:40;100970.38;;;0.66;71.85
36138;BME280;67787;50.074;21.904;2024-01-30T04:49:08;100965.33;;;0.68;71.95
36138;BME280;67787;50.074;21.904;2024-01-30T04:51:36;100967.60;;;0.70;71.90
36138;BME280;67787;50.074;21.904;2024-01-30T04:54:04;100969.16;;;0.73;71.96
36138;BME280;67787;50.074;21.904;2024-01-30T04:56:32;100968.30;;;0.73;71.88
36138;BME280;67787;50.074;21.904;2024-01-30T04:59:00;100966.54;;;0.74;71.66
36138;BME280;67787;50.074;21.904;2024-01-30T05:01:28;100967.41;;;0.76;71.84
36138;BME280;67787;50.074;21.904;2024-01-30T05:03:56;100963.73;;;0.76;71.76
36138;BME280;67787;50.074;21.904;2024-01-30T05:06:27;100963.58;;;0.77;71.85
36138;BME280;67787;50.074;21.904;2024-01-30T05:08:55;100967.41;;;0.78;71.79
36138;BME280;67787;50.074;21.904;2024-01-30T05:11:23;100966.71;;;0.78;71.66
36138;BME280;67787;50.074;21.904;2024-01-30T05:13:51;100971.95;;;0.79;71.72
36138;BME280;67787;50.074;21.904;2024-01-30T05:16:19;100970.38;;;0.80;71.58
36138;BME280;67787;50.074;21.904;2024-01-30T05:18:47;100968.63;;;0.79;71.65
36138;BME280;67787;50.074;21.904;2024-01-30T05:21:15;100972.47;;;0.81;71.59
36138;BME280;67787;50.074;21.904;2024-01-30T05:23:43;100972.10;;;0.85;71.50
36138;BME280;67787;50.074;21.904;2024-01-30T05:26:10;100981.18;;;0.87;71.71
36138;BME280;67787;50.074;21.904;2024-01-30T05:28:38;100982.77;;;0.85;71.53
36138;BME280;67787;50.074;21.904;2024-01-30T05:31:06;100987.30;;;0.84;71.28
36138;BME280;67787;50.074;21.904;2024-01-30T05:33:34;100990.27;;;0.82;71.35
36138;BME280;67787;50.074;21.904;2024-01-30T05:36:03;100987.30;;;0.82;71.52
36138;BME280;67787;50.074;21.904;2024-01-30T05:38:31;100985.20;;;0.82;71.40
36138;BME280;67787;50.074;21.904;2024-01-30T05:40:59;100985.55;;;0.82;71.52
36138;BME280;67787;50.074;21.904;2024-01-30T05:43:27;100986.27;;;0.81;71.45
36138;BME280;67787;50.074;21.904;2024-01-30T05:45:55;100984.52;;;0.81;71.40
36138;BME280;67787;50.074;21.904;2024-01-30T05:48:23;100985.57;;;0.83;71.37
36138;BME280;67787;50.074;21.904;2024-01-30T05:50:51;100984.34;;;0.84;71.19
36138;BME280;67787;50.074;21.904;2024-01-30T05:53:19;100980.84;;;0.84;71.45
36138;BME280;67787;50.074;21.904;2024-01-30T05:55:47;100987.30;;;0.85;71.29
36138;BME280;67787;50.074;21.904;2024-01-30T05:58:15;100987.98;;;0.87;71.47
36138;BME280;67787;50.074;21.904;2024-01-30T06:00:43;100985.37;;;0.86;71.38
36138;BME280;67787;50.074;21.904;2024-01-30T06:03:11;100989.22;;;0.88;71.24
36138;BME280;67787;50.074;21.904;2024-01-30T06:05:39;100995.67;;;0.89;71.30
36138;BME280;67787;50.074;21.904;2024-01-30T06:08:09;100990.25;;;0.93;71.43
36138;BME280;67787;50.074;21.904;2024-01-30T06:10:37;100986.24;;;0.97;71.19
36138;BME280;67787;50.074;21.904;2024-01-30T06:13:05;100989.38;;;0.97;70.94
36138;BME280;67787;50.074;21.904;2024-01-30T06:15:39;100983.26;;;0.99;71.33
36138;BME280;67787;50.074;21.904;2024-01-30T06:18:07;100981.15;;;1.01;71.12
36138;BME280;67787;50.074;21.904;2024-01-30T06:20:38;100988.48;;;1.04;71.20
36138;BME280;67787;50.074;21.904;2024-01-30T06:23:08;100986.03;;;1.04;71.14
36138;BME280;67787;50.074;21.904;2024-01-30T06:25:35;100989.70;;;1.04;71.31
36138;BME280;67787;50.074;21.904;2024-01-30T06:28:04;100988.30;;;1.04;70.96
36138;BME280;67787;50.074;21.904;2024-01-30T06:30:32;100985.86;;;1.05;71.03
36138;BME280;67787;50.074;21.904;2024-01-30T06:32:59;100983.94;;;1.05;71.11
36138;BME280;67787;50.074;21.904;2024-01-30T06:35:27;100983.77;;;1.07;71.05
36138;BME280;67787;50.074;21.904;2024-01-30T06:37:56;100979.90;;;1.08;71.02
36138;BME280;67787;50.074;21.904;2024-01-30T06:40:24;100983.92;;;1.09;70.92
36138;BME280;67787;50.074;21.904;2024-01-30T06:42:52;100978.85;;;1.11;70.91
36138;BME280;67787;50.074;21.904;2024-01-30T06:45:20;100973.63;;;1.10;70.78
36138;BME280;67787;50.074;21.904;2024-01-30T06:47:48;100970.46;;;1.11;70.87
36138;BME280;67787;50.074;21.904;2024-01-30T06:50:16;100966.80;;;1.14;70.88
36138;BME280;67787;50.074;21.904;2024-01-30T06:52:44;100967.30;;;1.16;70.67
36138;BME280;67787;50.074;21.904;2024-01-30T06:55:11;100969.59;;;1.17;70.66
36138;BME280;67787;50.074;21.904;2024-01-30T06:57:39;100971.49;;;1.19;70.54
36138;BME280;67787;50.074;21.904;2024-01-30T07:00:08;100971.66;;;1.21;70.62
36138;BME280;67787;50.074;21.904;2024-01-30T07:02:36;100970.96;;;1.22;70.34
36138;BME280;67787;50.074;21.904;2024-01-30T07:05:04;100971.98;;;1.25;70.52
36138;BME280;67787;50.074;21.904;2024-01-30T07:07:32;100972.86;;;1.27;70.57
36138;BME280;67787;50.074;21.904;2024-01-30T07:10:00;100974.77;;;1.29;70.41
36138;BME280;67787;50.074;21.904;2024-01-30T07:12:30;100973.19;;;1.32;70.60
36138;BME280;67787;50.074;21.904;2024-01-30T07:14:58;100973.54;;;1.34;70.42
36138;BME280;67787;50.074;21.904;2024-01-30T07:17:27;100970.19;;;1.38;70.34
36138;BME280;67787;50.074;21.904;2024-01-30T07:19:55;100972.11;;;1.42;70.12
36138;BME280;67787;50.074;21.904;2024-01-30T07:22:23;100972.79;;;1.45;70.12
36138;BME280;67787;50.074;21.904;2024-01-30T07:24:51;100968.92;;;1.48;70.28
36138;BME280;67787;50.074;21.904;2024-01-30T07:27:19;100969.79;;;1.51;70.08
36138;BME280;67787;50.074;21.904;2024-01-30T07:29:49;100971.52;;;1.54;70.04
36138;BME280;67787;50.074;21.904;2024-01-30T07:32:17;100973.79;;;1.58;70.08
36138;BME280;67787;50.074;21.904;2024-01-30T07:34:46;100976.38;;;1.62;69.99
36138;BME280;67787;50.074;21.904;2024-01-30T07:37:32;100974.77;;;1.67;69.78
36138;BME280;67787;50.074;21.904;2024-01-30T07:40:01;100970.73;;;1.70;70.02
36138;BME280;67787;50.074;21.904;2024-01-30T07:42:30;100972.83;;;1.72;69.71
36138;BME280;67787;50.074;21.904;2024-01-30T07:45:00;100975.42;;;1.77;69.85
36138;BME280;67787;50.074;21.904;2024-01-30T07:47:28;100980.84;;;1.81;69.69
36138;BME280;67787;50.074;21.904;2024-01-30T07:49:56;100979.77;;;1.83;69.62
36138;BME280;67787;50.074;21.904;2024-01-30T07:52:24;100977.11;;;1.86;69.55
36138;BME280;67787;50.074;21.904;2024-01-30T07:54:51;100972.37;;;1.91;69.68
36138;BME280;67787;50.074;21.904;2024-01-30T07:57:20;100971.64;;;1.95;69.71
36138;BME280;67787;50.074;21.904;2024-01-30T07:59:48;100974.77;;;1.98;69.32
36138;BME280;67787;50.074;21.904;2024-01-30T08:02:15;100971.09;;;2.00;69.31
36138;BME280;67787;50.074;21.904;2024-01-30T08:04:43;100974.21;;;2.03;69.59
36138;BME280;67787;50.074;21.904;2024-01-30T08:07:11;100975.40;;;2.07;69.41
36138;BME280;67787;50.074;21.904;2024-01-30T08:09:39;100975.91;;;2.10;69.26
36138;BME280;67787;50.074;21.904;2024-01-30T08:12:07;100974.66;;;2.13;69.25
36138;BME280;67787;50.074;21.904;2024-01-30T08:14:35;100974.83;;;2.16;69.43
36138;BME280;67787;50.074;21.904;2024-01-30T08:17:03;100972.89;;;2.17;69.08
36138;BME280;67787;50.074;21.904;2024-01-30T08:19:31;100977.91;;;2.23;68.82
36138;BME280;67787;50.074;21.904;2024-01-30T08:21:59;100979.48;;;2.27;69.26
36138;BME280;67787;50.074;21.904;2024-01-30T08:24:27;100983.64;;;2.31;69.09
36138;BME280;67787;50.074;21.904;2024-01-30T08:26:55;100983.45;;;2.35;69.11
36138;BME280;67787;50.074;21.904;2024-01-30T08:29:22;100982.55;;;2.36;68.97
36138;BME280;67787;50.074;21.904;2024-01-30T08:31:50;100982.00;;;2.40;68.75
36138;BME280;67787;50.074;21.904;2024-01-30T08:34:18;100980.19;;;2.45;68.98
36138;BME280;67787;50.074;21.904;2024-01-30T08:36:46;100980.86;;;2.50;68.80
36138;BME280;67787;50.074;21.904;2024-01-30T08:39:14;100982.56;;;2.55;68.83
36138;BME280;67787;50.074;21.904;2024-01-30T08:41:42;100979.90;;;2.59;68.69
36138;BME280;67787;50.074;21.904;2024-01-30T08:44:10;100981.09;;;2.63;68.73
36138;BME280;67787;50.074;21.904;2024-01-30T08:46:38;100975.98;;;2.65;68.43
36138;BME280;67787;50.074;21.904;2024-01-30T08:49:06;100974.05;;;2.67;68.39
36138;BME280;67787;50.074;21.904;2024-01-30T08:51:36;100974.52;;;2.73;68.41
36138;BME280;67787;50.074;21.904;2024-01-30T08:54:03;100975.53;;;2.78;68.50
36138;BME280;67787;50.074;21.904;2024-01-30T08:56:31;100970.60;;;2.80;68.43
36138;BME280;67787;50.074;21.904;2024-01-30T08:58:59;100976.88;;;2.83;68.57
36138;BME280;67787;50.074;21.904;2024-01-30T09:01:27;100981.21;;;2.87;68.38
36138;BME280;67787;50.074;21.904;2024-01-30T09:03:55;100978.54;;;2.92;68.37
36138;BME280;67787;50.074;21.904;2024-01-30T09:06:23;100980.42;;;2.96;68.30
36138;BME280;67787;50.074;21.904;2024-01-30T09:08:54;100978.27;;;3.02;68.23
36138;BME280;67787;50.074;21.904;2024-01-30T09:11:22;100977.54;;;3.05;68.41
36138;BME280;67787;50.074;21.904;2024-01-30T09:13:49;100972.58;;;3.07;68.25
36138;BME280;67787;50.074;21.904;2024-01-30T09:16:17;100968.71;;;3.09;68.16
36138;BME280;67787;50.074;21.904;2024-01-30T09:18:45;100970.45;;;3.10;68.12
36138;BME280;67787;50.074;21.904;2024-01-30T09:21:13;100967.80;;;3.12;68.22
36138;BME280;67787;50.074;21.904;2024-01-30T09:23:41;100972.51;;;3.15;68.08
36138;BME280;67787;50.074;21.904;2024-01-30T09:26:09;100969.46;;;3.20;68.07
36138;BME280;67787;50.074;21.904;2024-01-30T09:28:38;100969.27;;;3.23;67.94
36138;BME280;67787;50.074;21.904;2024-01-30T09:31:10;100969.95;;;3.24;67.84
36138;BME280;67787;50.074;21.904;2024-01-30T09:33:38;100976.05;;;3.26;67.94
36138;BME280;67787;50.074;21.904;2024-01-30T09:36:07;100976.19;;;3.30;67.68
36138;BME280;67787;50.074;21.904;2024-01-30T09:38:35;100973.14;;;3.36;67.94
36138;BME280;67787;50.074;21.904;2024-01-30T09:41:05;100970.10;;;3.40;67.88
36138;BME280;67787;50.074;21.904;2024-01-30T09:43:38;100972.65;;;3.46;67.55
36138;BME280;67787;50.074;21.904;2024-01-30T09:46:10;100969.46;;;3.49;67.58
36138;BME280;67787;50.074;21.904;2024-01-30T09:48:46;100973.14;;;3.49;67.72
36138;BME280;67787;50.074;21.904;2024-01-30T09:51:15;100971.72;;;3.51;67.75
36138;BME280;67787;50.074;21.904;2024-01-30T09:53:43;100974.34;;;3.52;67.35
36138;BME280;67787;50.074;21.904;2024-01-30T09:56:13;100973.42;;;3.55;67.51
36138;BME280;67787;50.074;21.904;2024-01-30T09:58:41;100970.75;;;3.58;67.45
36138;BME280;67787;50.074;21.904;2024-01-30T10:01:09;100967.71;;;3.63;67.86
36138;BME280;67787;50.074;21.904;2024-01-30T10:03:38;100956.55;;;3.69;67.53
36138;BME280;67787;50.074;21.904;2024-01-30T10:06:06;100957.04;;;3.74;67.45
36138;BME280;67787;50.074;21.904;2024-01-30T10:08:35;100954.91;;;3.75;67.32
36138;BME280;67787;50.074;21.904;2024-01-30T10:11:03;100952.40;;;3.78;67.48
36138;BME280;67787;50.074;21.904;2024-01-30T10:13:31;100952.33;;;3.84;67.48
36138;BME280;67787;50.074;21.904;2024-01-30T10:15:59;100949.44;;;3.89;67.30
36138;BME280;67787;50.074;21.904;2024-01-30T10:18:29;100949.73;;;3.93;67.42
36138;BME280;67787;50.074;21.904;2024-01-30T10:20:58;100947.20;;;3.97;67.34
36138;BME280;67787;50.074;21.904;2024-01-30T10:23:26;100945.41;;;4.00;67.10
36138;BME280;67787;50.074;21.904;2024-01-30T10:26:02;100944.65;;;4.05;67.33
36138;BME280;67787;50.074;21.904;2024-01-30T10:28:31;100947.54;;;4.10;67.24
36138;BME280;67787;50.074;21.904;2024-01-30T10:30:59;100944.68;;;4.13;67.14
36138;BME280;67787;50.074;21.904;2024-01-30T10:33:33;100943.61;;;4.14;67.35
36138;BME280;67787;50.074;21.904;2024-01-30T10:36:06;100939.02;;;4.16;67.31
36138;BME280;67787;50.074;21.904;2024-01-30T10:38:34;100932.34;;;4.16;67.05
36138;BME280;67787;50.074;21.904;2024-01-30T10:41:02;100930.39;;;4.17;67.19
36138;BME280;67787;50.074;21.904;2024-01-30T10:43:35;100928.41;;;4.21;66.96
36138;BME280;67787;50.074;21.904;2024-01-30T10:46:10;100926.23;;;4.26;67.08
36138;BME280;67787;50.074;21.904;2024-01-30T10:48:43;100920.35;;;4.30;67.21
36138;BME280;67787;50.074;21.904;2024-01-30T10:51:18;100918.17;;;4.34;67.09
36138;BME280;67787;50.074;21.904;2024-01-30T10:53:49;100913.77;;;4.35;66.98
36138;BME280;67787;50.074;21.904;2024-01-30T10:56:18;100910.59;;;4.35;66.87
36138;BME280;67787;50.074;21.904;2024-01-30T10:58:51;100909.88;;;4.36;66.94
36138;BME280;67787;50.074;21.904;2024-01-30T11:03:33;100902.95;;;4.50;67.02
36138;BME280;67787;50.074;21.904;2024-01-30T11:06:04;100901.35;;;4.52;66.95
36138;BME280;67787;50.074;21.904;2024-01-30T11:08:32;100902.19;;;4.54;66.85
36138;BME280;67787;50.074;21.904;2024-01-30T11:11:00;100893.36;;;4.57;66.76
36138;BME280;67787;50.074;21.904;2024-01-30T11:13:31;100893.89;;;4.56;66.71
36138;BME280;67787;50.074;21.904;2024-01-30T11:16:03;100892.67;;;4.56;66.67
36138;BME280;67787;50.074;21.904;2024-01-30T11:18:32;100894.23;;;4.57;66.51
36138;BME280;67787;50.074;21.904;2024-01-30T11:21:01;100890.33;;;4.59;66.58
36138;BME280;67787;50.074;21.904;2024-01-30T11:23:30;100882.79;;;4.58;66.43
36138;BME280;67787;50.074;21.904;2024-01-30T11:26:01;100882.89;;;4.62;66.34
36138;BME280;67787;50.074;21.904;2024-01-30T11:28:33;100874.11;;;4.62;66.18
36138;BME280;67787;50.074;21.904;2024-01-30T11:31:04;100872.42;;;4.58;66.20
36138;BME280;67787;50.074;21.904;2024-01-30T11:33:32;100875.06;;;4.58;66.40
36138;BME280;67787;50.074;21.904;2024-01-30T11:36:02;100874.67;;;4.60;66.10
36138;BME280;67787;50.074;21.904;2024-01-30T11:38:30;100870.58;;;4.63;66.37
36138;BME280;67787;50.074;21.904;2024-01-30T11:40:58;100867.04;;;4.64;66.10
36138;BME280;67787;50.074;21.904;2024-01-30T11:43:27;100863.64;;;4.67;66.13
36138;BME280;67787;50.074;21.904;2024-01-30T11:45:55;100866.00;;;4.72;66.15
36138;BME280;67787;50.074;21.904;2024-01-30T11:48:23;100863.86;;;4.74;66.05
36138;BME280;67787;50.074;21.904;2024-01-30T11:50:52;100865.56;;;4.76;66.05
36138;BME280;67787;50.074;21.904;2024-01-30T11:53:20;100866.62;;;4.77;66.02
36138;BME280;67787;50.074;21.904;2024-01-30T11:55:51;100864.16;;;4.76;65.83
36138;BME280;67787;50.074;21.904;2024-01-30T11:58:19;100866.02;;;4.80;65.80
36138;BME280;67787;50.074;21.904;2024-01-30T12:00:56;100864.45;;;4.80;65.82
36138;BME280;67787;50.074;21.904;2024-01-30T12:03:24;100863.41;;;4.79;65.66
36138;BME280;67787;50.074;21.904;2024-01-30T12:05:56;100865.86;;;4.79;65.86
36138;BME280;67787;50.074;21.904;2024-01-30T12:08:28;100864.06;;;4.82;65.71
36138;BME280;67787;50.074;21.904;2024-01-30T12:10:57;100869.13;;;4.83;65.79
36138;BME280;67787;50.074;21.904;2024-01-30T12:13:27;100867.38;;;4.83;65.73
36138;BME280;67787;50.074;21.904;2024-01-30T12:16:00;100862.66;;;4.82;65.64
36138;BME280;67787;50.074;21.904;2024-01-30T12:18:29;100861.04;;;4.84;65.79
36138;BME280;67787;50.074;21.904;2024-01-30T12:21:00;100860.24;;;4.88;65.71
36138;BME280;67787;50.074;21.904;2024-01-30T12:23:29;100862.13;;;4.90;65.50
36138;BME280;67787;50.074;21.904;2024-01-30T12:25:57;100857.70;;;4.91;65.48
36138;BME280;67787;50.074;21.904;2024-01-30T12:28:25;100855.24;;;4.91;65.41
36138;BME280;67787;50.074;21.904;2024-01-30T12:30:56;100856.68;;;4.90;65.45
36138;BME280;67787;50.074;21.904;2024-01-30T12:33:30;100851.84;;;4.86;65.28
36138;BME280;67787;50.074;21.904;2024-01-30T12:36:01;100852.23;;;4.84;65.29
36138;BME280;67787;50.074;21.904;2024-01-30T12:38:30;100852.52;;;4.88;65.31
36138;BME280;67787;50.074;21.904;2024-01-30T12:40:59;100849.08;;;4.92;65.37
36138;BME280;67787;50.074;21.904;2024-01-30T12:43:29;100842.89;;;4.94;65.25
36138;BME280;67787;50.074;21.904;2024-01-30T12:46:05;100843.07;;;4.94;65.08
36138;BME280;67787;50.074;21.904;2024-01-30T12:48:34;100840.28;;;4.92;64.97
36138;BME280;67787;50.074;21.904;2024-01-30T12:51:02;100840.62;;;4.93;64.93
36138;BME280;67787;50.074;21.904;2024-01-30T12:53:30;100835.49;;;4.95;65.06
36138;BME280;67787;50.074;21.904;2024-01-30T12:55:58;100833.02;;;4.96;64.95
36138;BME280;67787;50.074;21.904;2024-01-30T12:58:26;100836.73;;;4.94;65.06
36138;BME280;67787;50.074;21.904;2024-01-30T13:00:54;100832.84;;;4.95;64.87